sensor_id;sensor_type;location;lat;lon;timestamp;temperature;humidity
15937;DHT22;9163;48.818;8.976;2024-01-30T00:00:49;5.20;1.00
15937;DHT22;9163;48.818;8.976;2024-01-30T00:03:16;5.20;1.00
15937;DHT22;9163;48.818;8.976;2024-01-30T00:05:44;5.20;1.00
15937;DHT22;9163;48.818;8.976;2024-01-30T00:08:12;5.10;1.00
15937;DHT22;9163;48.818;8.976;2024-01-30T00:10:39;5.20;1.00
15937;DHT22;9163;48.818;8.976;2024-01-30T00:13:07;5.20;1.00
15937;DHT22;9163;48.818;8.976;2024-01-30T00:15:34;5.30;1.00
15937;DHT22;9163;48.818;8.976;2024-01-30T00:18:01;5.30;1.00
15937;DHT22;9163;48.818;8.976;2024-01-30T00:20:29;5.40;1.00
15937;DHT22;9163;48.818;8.976;2024-01-30T00:22:56;5.30;1.00
15937;DHT22;9163;48.818;8.976;2024-01-30T00:25:24;5.20;1.00
15937;DHT22;9163;48.818;8.976;2024-01-30T00:27:52;5.30;1.00
15937;DHT22;9163;48.818;8.976;2024-01-30T00:30:20;5.20;1.00
15937;DHT22;9163;48.818;8.976;2024-01-30T00:32:47;5.20;1.00
15937;DHT22;9163;48.818;8.976;2024-01-30T00:35:14;5.10;1.00
15937;DHT22;9163;48.818;8.976;2024-01-30T00:37:42;5.20;1.00
15937;DHT22;9163;48.818;8.976;2024-01-30T00:40:10;5.20;1.00
15937;DHT22;9163;48.818;8.976;2024-01-30T00:42:43;5.20;1.00
15937;DHT22;9163;48.818;8.976;2024-01-30T00:45:12;5.30;1.00
15937;DHT22;9163;48.818;8.976;2024-01-30T00:47:40;5.20;1.00
15937;DHT22;9163;48.818;8.976;2024-01-30T00:50:07;5.20;1.00
15937;DHT22;9163;48.818;8.976;2024-01-30T00:52:35;5.20;1.00
15937;DHT22;9163;48.818;8.976;2024-01-30T00:55:02;5.20;1.00
15937;DHT22;9163;48.818;8.976;2024-01-30T00:57:30;5.20;1.00
15937;DHT22;9163;48.818;8.976;2024-01-30T00:59:58;5.30;1.00
15937;DHT22;9163;48.818;8.976;2024-01-30T01:02:25;5.20;1.00
15937;DHT22;9163;48.818;8.976;2024-01-30T01:04:53;5.20;1.00
15937;DHT22;9163;48.818;8.976;2024-01-30T01:07:20;5.20;1.00
15937;DHT22;9163;48.818;8.976;2024-01-30T01:09:47;5.20;1.00
15937;DHT22;9163;48.818;8.976;2024-01-30T01:12:14;5.20;1.00
15937;DHT22;9163;48.818;8.976;2024-01-30T01:14:42;5.10;1.00
15937;DHT22;9163;48.818;8.976;2024-01-30T01:17:10;5.00;1.00
15937;DHT22;9163;48.818;8.976;2024-01-30T01:19:37;5.00;1.00
15937;DHT22;9163;48.818;8.976;2024-01-30T01:22:06;4.90;1.00
15937;DHT22;9163;48.818;8.976;2024-01-30T01:24:35;4.90;1.00
15937;DHT22;9163;48.818;8.976;2024-01-30T01:27:03;4.90;1.00
15937;DHT22;9163;48.818;8.976;2024-01-30T01:29:30;4.90;1.00
15937;DHT22;9163;48.818;8.976;2024-01-30T01:31:58;4.90;1.00
15937;DHT22;9163;48.818;8.976;2024-01-30T01:34:26;4.90;1.00
15937;DHT22;9163;48.818;8.976;2024-01-30T01:36:53;4.80;1.00
15937;DHT22;9163;48.818;8.976;2024-01-30T01:39:22;4.90;1.00
15937;DHT22;9163;48.818;8.976;2024-01-30T01:41:49;4.80;1.00
15937;DHT22;9163;48.818;8.976;2024-01-30T01:44:17;4.70;1.00
15937;DHT22;9163;48.818;8.976;2024-01-30T01:46:44;4.70;1.00
15937;DHT22;9163;48.818;8.976;2024-01-30T01:49:12;4.70;1.00
15937;DHT22;9163;48.818;8.976;2024-01-30T01:51:43;4.70;1.00
15937;DHT22;9163;48.818;8.976;2024-01-30T01:54:12;4.60;1.00
15937;DHT22;9163;48.818;8.976;2024-01-30T01:56:41;4.60;1.00
15937;DHT22;9163;48.818;8.976;2024-01-30T01:59:09;4.60;1.00
15937;DHT22;9163;48.818;8.976;2024-01-30T02:01:37;4.40;1.00
15937;DHT22;9163;48.818;8.976;2024-01-30T02:04:04;4.40;1.00
15937;DHT22;9163;48.818;8.976;2024-01-30T02:06:32;4.40;1.00
15937;DHT22;9163;48.818;8.976;2024-01-30T02:09:01;4.40;1.00
15937;DHT22;9163;48.818;8.976;2024-01-30T02:11:30;4.30;1.00
15937;DHT22;9163;48.818;8.976;2024-01-30T02:14:02;4.30;1.00
15937;DHT22;9163;48.818;8.976;2024-01-30T02:16:29;4.40;1.00
15937;DHT22;9163;48.818;8.976;2024-01-30T02:18:57;4.40;1.00
15937;DHT22;9163;48.818;8.976;2024-01-30T02:21:25;4.40;1.00
15937;DHT22;9163;48.818;8.976;2024-01-30T02:23:54;4.40;1.00
15937;DHT22;9163;48.818;8.976;2024-01-30T02:26:22;4.40;1.00
15937;DHT22;9163;48.818;8.976;2024-01-30T02:28:49;4.30;1.00
15937;DHT22;9163;48.818;8.976;2024-01-30T02:31:16;4.40;1.00
15937;DHT22;9163;48.818;8.976;2024-01-30T02:33:43;4.30;1.00
15937;DHT22;9163;48.818;8.976;2024-01-30T02:36:10;4.30;1.00
15937;DHT22;9163;48.818;8.976;2024-01-30T02:38:38;4.30;1.00
15937;DHT22;9163;48.818;8.976;2024-01-30T02:41:06;4.30;1.00
15937;DHT22;9163;48.818;8.976;2024-01-30T02:43:34;4.30;1.00
15937;DHT22;9163;48.818;8.976;2024-01-30T02:46:02;4.30;1.00
15937;DHT22;9163;48.818;8.976;2024-01-30T02:48:29;4.20;1.00
15937;DHT22;9163;48.818;8.976;2024-01-30T02:50:56;4.20;1.00
15937;DHT22;9163;48.818;8.976;2024-01-30T02:53:23;4.20;1.00
15937;DHT22;9163;48.818;8.976;2024-01-30T02:55:52;4.20;1.00
15937;DHT22;9163;48.818;8.976;2024-01-30T02:58:19;4.10;1.00
15937;DHT22;9163;48.818;8.976;2024-01-30T03:00:47;4.10;1.00
15937;DHT22;9163;48.818;8.976;2024-01-30T03:03:14;4.00;1.00
15937;DHT22;9163;48.818;8.976;2024-01-30T03:05:41;4.00;1.00
15937;DHT22;9163;48.818;8.976;2024-01-30T03:08:08;3.90;1.00
15937;DHT22;9163;48.818;8.976;2024-01-30T03:10:36;3.90;1.00
15937;DHT22;9163;48.818;8.976;2024-01-30T03:13:04;4.00;1.00
15937;DHT22;9163;48.818;8.976;2024-01-30T03:15:32;4.00;1.00
15937;DHT22;9163;48.818;8.976;2024-01-30T03:17:59;4.00;1.00
15937;DHT22;9163;48.818;8.976;2024-01-30T03:20:26;4.00;1.00
15937;DHT22;9163;48.818;8.976;2024-01-30T03:22:55;4.00;1.00
15937;DHT22;9163;48.818;8.976;2024-01-30T03:25:22;4.00;1.00
15937;DHT22;9163;48.818;8.976;2024-01-30T03:27:49;4.00;1.00
15937;DHT22;9163;48.818;8.976;2024-01-30T03:30:18;4.00;1.00
15937;DHT22;9163;48.818;8.976;2024-01-30T03:32:46;4.10;1.00
15937;DHT22;9163;48.818;8.976;2024-01-30T03:35:13;4.10;1.00
15937;DHT22;9163;48.818;8.976;2024-01-30T03:37:43;4.10;1.00
15937;DHT22;9163;48.818;8.976;2024-01-30T03:40:11;4.00;1.00
15937;DHT22;9163;48.818;8.976;2024-01-30T03:42:38;4.00;1.00
15937;DHT22;9163;48.818;8.976;2024-01-30T03:45:07;3.90;1.00
15937;DHT22;9163;48.818;8.976;2024-01-30T03:47:35;3.90;1.00
15937;DHT22;9163;48.818;8.976;2024-01-30T03:50:03;3.90;1.00
15937;DHT22;9163;48.818;8.976;2024-01-30T03:52:32;3.80;1.00
15937;DHT22;9163;48.818;8.976;2024-01-30T03:54:59;3.80;1.00
15937;DHT22;9163;48.818;8.976;2024-01-30T03:57:27;3.70;1.00
15937;DHT22;9163;48.818;8.976;2024-01-30T03:59:54;3.70;1.00
15937;DHT22;9163;48.818;8.976;2024-01-30T04:02:21;3.70;1.00
15937;DHT22;9163;48.818;8.976;2024-01-30T04:04:50;3.80;1.00
15937;DHT22;9163;48.818;8.976;2024-01-30T04:07:17;3.80;1.00
15937;DHT22;9163;48.818;8.976;2024-01-30T04:09:44;3.70;1.00
15937;DHT22;9163;48.818;8.976;2024-01-30T04:12:11;3.70;1.00
15937;DHT22;9163;48.818;8.976;2024-01-30T04:14:39;3.70;1.00
15937;DHT22;9163;48.818;8.976;2024-01-30T04:17:06;3.60;1.00
15937;DHT22;9163;48.818;8.976;2024-01-30T04:19:37;3.60;1.00
15937;DHT22;9163;48.818;8.976;2024-01-30T04:22:06;3.60;1.00
15937;DHT22;9163;48.818;8.976;2024-01-30T04:24:33;3.60;1.00
15937;DHT22;9163;48.818;8.976;2024-01-30T04:27:00;3.60;1.00
15937;DHT22;9163;48.818;8.976;2024-01-30T04:29:28;3.70;1.00
15937;DHT22;9163;48.818;8.976;2024-01-30T04:31:55;3.80;1.00
15937;DHT22;9163;48.818;8.976;2024-01-30T04:34:22;3.90;1.00
15937;DHT22;9163;48.818;8.976;2024-01-30T04:36:50;3.80;1.00
15937;DHT22;9163;48.818;8.976;2024-01-30T04:39:18;3.80;1.00
15937;DHT22;9163;48.818;8.976;2024-01-30T04:41:46;3.90;1.00
15937;DHT22;9163;48.818;8.976;2024-01-30T04:44:14;3.90;1.00
15937;DHT22;9163;48.818;8.976;2024-01-30T04:46:41;3.80;1.00
15937;DHT22;9163;48.818;8.976;2024-01-30T04:49:08;3.80;1.00
15937;DHT22;9163;48.818;8.976;2024-01-30T04:51:35;3.70;1.00
15937;DHT22;9163;48.818;8.976;2024-01-30T04:54:03;3.80;1.00
15937;DHT22;9163;48.818;8.976;2024-01-30T04:56:31;3.80;1.00
15937;DHT22;9163;48.818;8.976;2024-01-30T04:58:59;3.70;1.00
15937;DHT22;9163;48.818;8.976;2024-01-30T05:01:26;3.70;1.00
15937;DHT22;9163;48.818;8.976;2024-01-30T05:03:54;3.70;1.00
15937;DHT22;9163;48.818;8.976;2024-01-30T05:06:24;3.60;1.00
15937;DHT22;9163;48.818;8.976;2024-01-30T05:08:52;3.60;1.00
15937;DHT22;9163;48.818;8.976;2024-01-30T05:11:19;3.60;1.00
15937;DHT22;9163;48.818;8.976;2024-01-30T05:13:48;3.50;1.00
15937;DHT22;9163;48.818;8.976;2024-01-30T05:16:15;3.50;1.00
15937;DHT22;9163;48.818;8.976;2024-01-30T05:18:42;3.50;1.00
15937;DHT22;9163;48.818;8.976;2024-01-30T05:21:10;3.50;1.00
15937;DHT22;9163;48.818;8.976;2024-01-30T05:23:37;3.40;1.00
15937;DHT22;9163;48.818;8.976;2024-01-30T05:26:05;3.40;1.00
15937;DHT22;9163;48.818;8.976;2024-01-30T05:28:32;3.30;1.00
15937;DHT22;9163;48.818;8.976;2024-01-30T05:31:01;3.30;1.00
15937;DHT22;9163;48.818;8.976;2024-01-30T05:33:28;3.20;1.00
15937;DHT22;9163;48.818;8.976;2024-01-30T05:35:56;3.30;1.00
15937;DHT22;9163;48.818;8.976;2024-01-30T05:38:23;3.20;1.00
15937;DHT22;9163;48.818;8.976;2024-01-30T05:40:50;3.30;1.00
15937;DHT22;9163;48.818;8.976;2024-01-30T05:43:17;3.30;1.00
15937;DHT22;9163;48.818;8.976;2024-01-30T05:45:44;3.20;1.00
15937;DHT22;9163;48.818;8.976;2024-01-30T05:48:13;3.20;1.00
15937;DHT22;9163;48.818;8.976;2024-01-30T05:50:40;3.10;1.00
15937;DHT22;9163;48.818;8.976;2024-01-30T05:53:08;3.20;1.00
15937;DHT22;9163;48.818;8.976;2024-01-30T05:55:35;3.20;1.00
15937;DHT22;9163;48.818;8.976;2024-01-30T05:58:03;3.20;1.00
15937;DHT22;9163;48.818;8.976;2024-01-30T06:00:30;3.20;1.00
15937;DHT22;9163;48.818;8.976;2024-01-30T06:02:58;3.30;1.00
15937;DHT22;9163;48.818;8.976;2024-01-30T06:05:26;3.30;1.00
15937;DHT22;9163;48.818;8.976;2024-01-30T06:07:53;3.30;1.00
15937;DHT22;9163;48.818;8.976;2024-01-30T06:10:21;3.40;1.00
15937;DHT22;9163;48.818;8.976;2024-01-30T06:12:48;3.30;1.00
15937;DHT22;9163;48.818;8.976;2024-01-30T06:15:15;3.30;1.00
15937;DHT22;9163;48.818;8.976;2024-01-30T06:17:43;3.30;1.00
15937;DHT22;9163;48.818;8.976;2024-01-30T06:20:10;3.20;1.00
15937;DHT22;9163;48.818;8.976;2024-01-30T06:22:39;3.10;1.00
15937;DHT22;9163;48.818;8.976;2024-01-30T06:25:06;3.20;1.00
15937;DHT22;9163;48.818;8.976;2024-01-30T06:27:34;3.20;1.00
15937;DHT22;9163;48.818;8.976;2024-01-30T06:30:01;3.20;1.00
15937;DHT22;9163;48.818;8.976;2024-01-30T06:32:29;3.20;1.00
15937;DHT22;9163;48.818;8.976;2024-01-30T06:35:00;3.10;1.00
15937;DHT22;9163;48.818;8.976;2024-01-30T06:37:27;3.20;1.00
15937;DHT22;9163;48.818;8.976;2024-01-30T06:39:56;3.20;1.00
15937;DHT22;9163;48.818;8.976;2024-01-30T06:42:23;3.10;1.00
15937;DHT22;9163;48.818;8.976;2024-01-30T06:44:51;3.10;1.00
15937;DHT22;9163;48.818;8.976;2024-01-30T06:47:18;3.00;1.00
15937;DHT22;9163;48.818;8.976;2024-01-30T06:49:45;3.00;1.50
15937;DHT22;9163;48.818;8.976;2024-01-30T06:52:12;2.90;18.20
15937;DHT22;9163;48.818;8.976;2024-01-30T06:54:40;3.00;20.20
15937;DHT22;9163;48.818;8.976;2024-01-30T06:57:08;3.00;16.10
15937;DHT22;9163;48.818;8.976;2024-01-30T06:59:37;3.00;11.90
15937;DHT22;9163;48.818;8.976;2024-01-30T07:02:09;3.00;15.90
15937;DHT22;9163;48.818;8.976;2024-01-30T07:04:36;3.00;18.20
15937;DHT22;9163;48.818;8.976;2024-01-30T07:07:05;3.10;11.70
15937;DHT22;9163;48.818;8.976;2024-01-30T07:09:37;3.10;3.20
15937;DHT22;9163;48.818;8.976;2024-01-30T07:12:06;3.10;14.60
15937;DHT22;9163;48.818;8.976;2024-01-30T07:14:34;3.10;11.00
15937;DHT22;9163;48.818;8.976;2024-01-30T07:17:02;3.20;6.70
15937;DHT22;9163;48.818;8.976;2024-01-30T07:19:29;3.20;1.00
15937;DHT22;9163;48.818;8.976;2024-01-30T07:21:56;3.30;1.00
15937;DHT22;9163;48.818;8.976;2024-01-30T07:24:24;3.40;1.00
15937;DHT22;9163;48.818;8.976;2024-01-30T07:26:52;3.40;1.00
15937;DHT22;9163;48.818;8.976;2024-01-30T07:29:19;3.50;1.00
15937;DHT22;9163;48.818;8.976;2024-01-30T07:31:49;3.60;1.00
15937;DHT22;9163;48.818;8.976;2024-01-30T07:34:16;3.70;1.00
15937;DHT22;9163;48.818;8.976;2024-01-30T07:36:43;3.80;1.00
15937;DHT22;9163;48.818;8.976;2024-01-30T07:39:12;3.90;1.00
15937;DHT22;9163;48.818;8.976;2024-01-30T07:41:39;3.90;1.00
15937;DHT22;9163;48.818;8.976;2024-01-30T07:44:06;4.00;1.00
15937;DHT22;9163;48.818;8.976;2024-01-30T07:46:34;4.00;1.00
15937;DHT22;9163;48.818;8.976;2024-01-30T07:49:02;4.10;1.00
15937;DHT22;9163;48.818;8.976;2024-01-30T07:51:29;4.10;1.00
15937;DHT22;9163;48.818;8.976;2024-01-30T07:53:58;4.20;1.00
15937;DHT22;9163;48.818;8.976;2024-01-30T07:56:26;4.30;1.00
15937;DHT22;9163;48.818;8.976;2024-01-30T07:58:53;4.50;1.00
15937;DHT22;9163;48.818;8.976;2024-01-30T08:01:20;4.60;1.00
15937;DHT22;9163;48.818;8.976;2024-01-30T08:03:47;4.80;1.00
15937;DHT22;9163;48.818;8.976;2024-01-30T08:06:16;5.00;1.00
15937;DHT22;9163;48.818;8.976;2024-01-30T08:08:43;5.00;1.00
15937;DHT22;9163;48.818;8.976;2024-01-30T08:11:11;5.30;1.00
15937;DHT22;9163;48.818;8.976;2024-01-30T08:13:39;5.50;1.00
15937;DHT22;9163;48.818;8.976;2024-01-30T08:16:06;5.80;1.00
15937;DHT22;9163;48.818;8.976;2024-01-30T08:18:34;6.20;1.00
15937;DHT22;9163;48.818;8.976;2024-01-30T08:21:01;6.40;1.00
15937;DHT22;9163;48.818;8.976;2024-01-30T08:23:30;6.70;1.00
15937;DHT22;9163;48.818;8.976;2024-01-30T08:25:57;7.10;1.00
15937;DHT22;9163;48.818;8.976;2024-01-30T08:28:24;7.20;1.00
15937;DHT22;9163;48.818;8.976;2024-01-30T08:30:52;7.10;1.00
15937;DHT22;9163;48.818;8.976;2024-01-30T08:33:19;6.90;1.00
15937;DHT22;9163;48.818;8.976;2024-01-30T08:35:46;6.60;1.00
15937;DHT22;9163;48.818;8.976;2024-01-30T08:38:13;6.50;99.90
15937;DHT22;9163;48.818;8.976;2024-01-30T08:40:43;6.50;1.00
15937;DHT22;9163;48.818;8.976;2024-01-30T08:43:10;6.50;99.90
15937;DHT22;9163;48.818;8.976;2024-01-30T08:45:38;6.70;99.90
15937;DHT22;9163;48.818;8.976;2024-01-30T08:48:06;6.90;99.90
15937;DHT22;9163;48.818;8.976;2024-01-30T08:50:34;7.30;99.90
15937;DHT22;9163;48.818;8.976;2024-01-30T08:53:01;7.30;99.90
15937;DHT22;9163;48.818;8.976;2024-01-30T08:55:28;7.80;99.90
15937;DHT22;9163;48.818;8.976;2024-01-30T08:57:57;8.30;99.90
15937;DHT22;9163;48.818;8.976;2024-01-30T09:00:24;8.60;99.90
15937;DHT22;9163;48.818;8.976;2024-01-30T09:02:52;9.10;99.90
15937;DHT22;9163;48.818;8.976;2024-01-30T09:05:19;9.40;99.90
15937;DHT22;9163;48.818;8.976;2024-01-30T09:07:46;9.60;99.90
15937;DHT22;9163;48.818;8.976;2024-01-30T09:10:14;10.10;12.10
15937;DHT22;9163;48.818;8.976;2024-01-30T09:12:41;10.00;1.00
15937;DHT22;9163;48.818;8.976;2024-01-30T09:15:10;9.90;1.00
15937;DHT22;9163;48.818;8.976;2024-01-30T09:17:38;10.30;1.00
15937;DHT22;9163;48.818;8.976;2024-01-30T09:20:06;9.90;1.00
15937;DHT22;9163;48.818;8.976;2024-01-30T09:22:35;10.00;1.00
15937;DHT22;9163;48.818;8.976;2024-01-30T09:25:02;9.50;1.00
15937;DHT22;9163;48.818;8.976;2024-01-30T09:27:29;9.60;1.00
15937;DHT22;9163;48.818;8.976;2024-01-30T09:29:57;9.50;1.00
15937;DHT22;9163;48.818;8.976;2024-01-30T09:32:25;9.70;1.00
15937;DHT22;9163;48.818;8.976;2024-01-30T09:34:52;9.80;1.00
15937;DHT22;9163;48.818;8.976;2024-01-30T09:37:20;9.50;1.00
15937;DHT22;9163;48.818;8.976;2024-01-30T09:39:47;9.60;1.00
15937;DHT22;9163;48.818;8.976;2024-01-30T09:42:20;9.40;1.00
15937;DHT22;9163;48.818;8.976;2024-01-30T09:44:51;9.10;1.00
15937;DHT22;9163;48.818;8.976;2024-01-30T09:47:18;8.90;1.00
15937;DHT22;9163;48.818;8.976;2024-01-30T09:49:47;8.70;1.00
15937;DHT22;9163;48.818;8.976;2024-01-30T09:52:15;8.80;1.00
15937;DHT22;9163;48.818;8.976;2024-01-30T09:54:43;8.90;1.00
15937;DHT22;9163;48.818;8.976;2024-01-30T09:57:11;8.90;1.00
15937;DHT22;9163;48.818;8.976;2024-01-30T09:59:39;8.90;1.00
15937;DHT22;9163;48.818;8.976;2024-01-30T10:02:07;9.20;1.00
15937;DHT22;9163;48.818;8.976;2024-01-30T10:04:35;9.20;1.00
15937;DHT22;9163;48.818;8.976;2024-01-30T10:07:04;9.30;1.00
15937;DHT22;9163;48.818;8.976;2024-01-30T10:09:32;9.20;1.00
15937;DHT22;9163;48.818;8.976;2024-01-30T10:12:01;9.40;1.00
15937;DHT22;9163;48.818;8.976;2024-01-30T10:14:29;9.40;1.00
15937;DHT22;9163;48.818;8.976;2024-01-30T10:16:57;9.40;1.00
15937;DHT22;9163;48.818;8.976;2024-01-30T10:19:25;9.50;1.00
15937;DHT22;9163;48.818;8.976;2024-01-30T10:21:52;9.70;1.00
15937;DHT22;9163;48.818;8.976;2024-01-30T10:24:25;9.50;1.00
15937;DHT22;9163;48.818;8.976;2024-01-30T10:26:53;9.00;1.00
15937;DHT22;9163;48.818;8.976;2024-01-30T10:29:20;9.10;1.00
15937;DHT22;9163;48.818;8.976;2024-01-30T10:31:58;8.80;1.00
15937;DHT22;9163;48.818;8.976;2024-01-30T10:34:25;8.70;1.00
15937;DHT22;9163;48.818;8.976;2024-01-30T10:37:00;8.80;1.00
15937;DHT22;9163;48.818;8.976;2024-01-30T10:39:38;8.90;1.00
15937;DHT22;9163;48.818;8.976;2024-01-30T10:42:06;8.90;1.00
15937;DHT22;9163;48.818;8.976;2024-01-30T10:44:39;9.00;1.00
15937;DHT22;9163;48.818;8.976;2024-01-30T10:47:12;9.10;1.00
15937;DHT22;9163;48.818;8.976;2024-01-30T10:49:41;9.40;1.00
15937;DHT22;9163;48.818;8.976;2024-01-30T10:52:09;9.60;1.00
15937;DHT22;9163;48.818;8.976;2024-01-30T10:54:40;9.70;1.00
15937;DHT22;9163;48.818;8.976;2024-01-30T10:57:11;10.20;1.00
15937;DHT22;9163;48.818;8.976;2024-01-30T10:59:39;10.30;1.00
15937;DHT22;9163;48.818;8.976;2024-01-30T11:02:07;10.40;1.00
15937;DHT22;9163;48.818;8.976;2024-01-30T11:04:37;10.30;1.00
15937;DHT22;9163;48.818;8.976;2024-01-30T11:07:14;10.10;1.00
15937;DHT22;9163;48.818;8.976;2024-01-30T11:09:50;10.00;1.00
15937;DHT22;9163;48.818;8.976;2024-01-30T11:12:21;9.60;1.00
15937;DHT22;9163;48.818;8.976;2024-01-30T11:14:49;9.60;1.00
15937;DHT22;9163;48.818;8.976;2024-01-30T11:17:17;9.60;1.00
15937;DHT22;9163;48.818;8.976;2024-01-30T11:19:46;9.60;1.00
15937;DHT22;9163;48.818;8.976;2024-01-30T11:22:13;9.50;1.00
15937;DHT22;9163;48.818;8.976;2024-01-30T11:24:41;9.70;1.00
15937;DHT22;9163;48.818;8.976;2024-01-30T11:27:09;9.90;1.00
15937;DHT22;9163;48.818;8.976;2024-01-30T11:29:37;10.00;1.00
15937;DHT22;9163;48.818;8.976;2024-01-30T11:32:05;10.20;1.00
15937;DHT22;9163;48.818;8.976;2024-01-30T11:34:32;10.30;1.00
15937;DHT22;9163;48.818;8.976;2024-01-30T11:37:04;10.30;1.00
15937;DHT22;9163;48.818;8.976;2024-01-30T11:39:33;10.30;1.00
15937;DHT22;9163;48.818;8.976;2024-01-30T11:42:01;10.50;1.00
15937;DHT22;9163;48.818;8.976;2024-01-30T11:44:32;10.50;1.00
15937;DHT22;9163;48.818;8.976;2024-01-30T11:46:59;10.30;1.00
15937;DHT22;9163;48.818;8.976;2024-01-30T11:49:27;10.50;1.00
15937;DHT22;9163;48.818;8.976;2024-01-30T11:51:54;10.60;1.00
15937;DHT22;9163;48.818;8.976;2024-01-30T11:54:22;10.70;1.00
15937;DHT22;9163;48.818;8.976;2024-01-30T11:56:49;10.80;1.00
15937;DHT22;9163;48.818;8.976;2024-01-30T11:59:16;10.80;1.00
15937;DHT22;9163;48.818;8.976;2024-01-30T12:01:45;11.00;1.00
15937;DHT22;9163;48.818;8.976;2024-01-30T12:04:12;11.20;1.00
15937;DHT22;9163;48.818;8.976;2024-01-30T12:06:39;11.30;1.00
15937;DHT22;9163;48.818;8.976;2024-01-30T12:09:07;11.50;1.00
15937;DHT22;9163;48.818;8.976;2024-01-30T12:11:43;11.60;1.00
15937;DHT22;9163;48.818;8.976;2024-01-30T12:14:12;11.70;1.00
15937;DHT22;9163;48.818;8.976;2024-01-30T12:16:39;12.20;1.00
15937;DHT22;9163;48.818;8.976;2024-01-30T12:19:08;12.00;1.00
15937;DHT22;9163;48.818;8.976;2024-01-30T12:21:37;12.40;1.00
15937;DHT22;9163;48.818;8.976;2024-01-30T12:24:05;12.80;1.00
15937;DHT22;9163;48.818;8.976;2024-01-30T12:26:33;13.60;1.00
15937;DHT22;9163;48.818;8.976;2024-01-30T12:29:00;15.10;1.00
15937;DHT22;9163;48.818;8.976;2024-01-30T12:31:32;16.20;99.90
15937;DHT22;9163;48.818;8.976;2024-01-30T12:34:00;17.40;99.90
15937;DHT22;9163;48.818;8.976;2024-01-30T12:36:28;19.40;99.90
15937;DHT22;9163;48.818;8.976;2024-01-30T12:38:56;19.70;1.00
15937;DHT22;9163;48.818;8.976;2024-01-30T12:41:24;21.20;1.00
15937;DHT22;9163;48.818;8.976;2024-01-30T12:43:54;20.40;99.90
15937;DHT22;9163;48.818;8.976;2024-01-30T12:46:27;20.50;99.90
15937;DHT22;9163;48.818;8.976;2024-01-30T12:48:55;20.90;99.90
15937;DHT22;9163;48.818;8.976;2024-01-30T12:51:22;21.50;1.00
15937;DHT22;9163;48.818;8.976;2024-01-30T12:53:51;20.00;1.00
15937;DHT22;9163;48.818;8.976;2024-01-30T12:56:18;20.90;1.00
15937;DHT22;9163;48.818;8.976;2024-01-30T12:58:46;23.60;1.00
15937;DHT22;9163;48.818;8.976;2024-01-30T13:01:13;23.90;1.00
15937;DHT22;9163;48.818;8.976;2024-01-30T13:03:40;25.40;1.00
15937;DHT22;9163;48.818;8.976;2024-01-30T13:06:07;24.40;1.00
15937;DHT22;9163;48.818;8.976;2024-01-30T13:08:35;23.70;1.00
15937;DHT22;9163;48.818;8.976;2024-01-30T13:11:04;22.90;99.90
15937;DHT22;9163;48.818;8.976;2024-01-30T13:13:31;23.60;1.00
15937;DHT22;9163;48.818;8.976;2024-01-30T13:15:58;24.90;1.00
15937;DHT22;9163;48.818;8.976;2024-01-30T13:18:26;25.00;99.90
15937;DHT22;9163;48.818;8.976;2024-01-30T13:20:53;24.70;99.90
15937;DHT22;9163;48.818;8.976;2024-01-30T13:23:20;25.10;99.90
15937;DHT22;9163;48.818;8.976;2024-01-30T13:25:47;25.70;99.90
15937;DHT22;9163;48.818;8.976;2024-01-30T13:28:16;25.80;99.90
15937;DHT22;9163;48.818;8.976;2024-01-30T13:30:44;25.70;99.90
15937;DHT22;9163;48.818;8.976;2024-01-30T13:33:11;25.00;93.40
15937;DHT22;9163;48.818;8.976;2024-01-30T13:35:38;22.70;1.00
15937;DHT22;9163;48.818;8.976;2024-01-30T13:38:05;21.70;1.00
15937;DHT22;9163;48.818;8.976;2024-01-30T13:40:32;21.30;1.00
15937;DHT22;9163;48.818;8.976;2024-01-30T13:43:00;20.70;1.00
15937;DHT22;9163;48.818;8.976;2024-01-30T13:45:28;20.10;1.00
15937;DHT22;9163;48.818;8.976;2024-01-30T13:47:55;19.50;1.00
15937;DHT22;9163;48.818;8.976;2024-01-30T13:50:23;18.00;1.00
15937;DHT22;9163;48.818;8.976;2024-01-30T13:52:50;17.90;1.00
15937;DHT22;9163;48.818;8.976;2024-01-30T13:55:17;17.50;1.00
15937;DHT22;9163;48.818;8.976;2024-01-30T13:57:45;17.50;1.00
15937;DHT22;9163;48.818;8.976;2024-01-30T14:00:12;17.50;1.00
15937;DHT22;9163;48.818;8.976;2024-01-30T14:02:43;16.70;1.00
15937;DHT22;9163;48.818;8.976;2024-01-30T14:05:10;16.80;1.00
15937;DHT22;9163;48.818;8.976;2024-01-30T14:07:38;17.00;1.00
15937;DHT22;9163;48.818;8.976;2024-01-30T14:10:07;16.90;1.00
15937;DHT22;9163;48.818;8.976;2024-01-30T14:12:34;17.20;1.00
15937;DHT22;9163;48.818;8.976;2024-01-30T14:15:01;17.30;1.00
15937;DHT22;9163;48.818;8.976;2024-01-30T14:17:29;17.40;39.50
15937;DHT22;9163;48.818;8.976;2024-01-30T14:19:57;17.30;85.60
15937;DHT22;9163;48.818;8.976;2024-01-30T14:22:24;17.10;99.90
15937;DHT22;9163;48.818;8.976;2024-01-30T14:24:52;16.90;99.90
15937;DHT22;9163;48.818;8.976;2024-01-30T14:27:19;16.70;99.90
15937;DHT22;9163;48.818;8.976;2024-01-30T14:29:46;16.90;99.90
15937;DHT22;9163;48.818;8.976;2024-01-30T14:32:13;17.00;99.90
15937;DHT22;9163;48.818;8.976;2024-01-30T14:34:41;16.90;99.90
15937;DHT22;9163;48.818;8.976;2024-01-30T14:37:10;16.80;99.90
15937;DHT22;9163;48.818;8.976;2024-01-30T14:39:37;16.60;99.90
15937;DHT22;9163;48.818;8.976;2024-01-30T14:42:06;16.30;99.90
15937;DHT22;9163;48.818;8.976;2024-01-30T14:44:34;16.00;99.90
15937;DHT22;9163;48.818;8.976;2024-01-30T14:47:01;15.60;99.90
15937;DHT22;9163;48.818;8.976;2024-01-30T14:49:28;15.30;99.90
15937;DHT22;9163;48.818;8.976;2024-01-30T14:51:55;14.90;99.90
15937;DHT22;9163;48.818;8.976;2024-01-30T14:54:25;14.70;99.90
15937;DHT22;9163;48.818;8.976;2024-01-30T14:56:53;14.40;1.00
15937;DHT22;9163;48.818;8.976;2024-01-30T14:59:20;14.20;99.90
15937;DHT22;9163;48.818;8.976;2024-01-30T15:01:47;14.00;99.90
15937;DHT22;9163;48.818;8.976;2024-01-30T15:04:15;13.80;99.90
15937;DHT22;9163;48.818;8.976;2024-01-30T15:06:42;13.70;99.90
15937;DHT22;9163;48.818;8.976;2024-01-30T15:09:14;13.40;99.90
15937;DHT22;9163;48.818;8.976;2024-01-30T15:11:44;13.10;99.90
15937;DHT22;9163;48.818;8.976;2024-01-30T15:14:12;12.90;1.00
15937;DHT22;9163;48.818;8.976;2024-01-30T15:16:39;12.80;99.90
15937;DHT22;9163;48.818;8.976;2024-01-30T15:19:07;12.60;1.00
15937;DHT22;9163;48.818;8.976;2024-01-30T15:21:35;12.40;1.00
15937;DHT22;9163;48.818;8.976;2024-01-30T15:24:02;12.30;1.00
15937;DHT22;9163;48.818;8.976;2024-01-30T15:26:30;12.10;1.00
15937;DHT22;9163;48.818;8.976;2024-01-30T15:28:58;12.00;1.00
15937;DHT22;9163;48.818;8.976;2024-01-30T15:31:25;11.90;1.00
15937;DHT22;9163;48.818;8.976;2024-01-30T15:33:53;11.80;1.00
15937;DHT22;9163;48.818;8.976;2024-01-30T15:36:20;11.60;1.00
15937;DHT22;9163;48.818;8.976;2024-01-30T15:38:48;11.40;1.00
15937;DHT22;9163;48.818;8.976;2024-01-30T15:41:15;11.30;1.00
15937;DHT22;9163;48.818;8.976;2024-01-30T15:43:42;11.10;1.00
15937;DHT22;9163;48.818;8.976;2024-01-30T15:46:11;10.90;1.00
15937;DHT22;9163;48.818;8.976;2024-01-30T15:48:38;10.80;48.30
15937;DHT22;9163;48.818;8.976;2024-01-30T15:51:05;10.70;99.90
15937;DHT22;9163;48.818;8.976;2024-01-30T15:53:33;10.60;99.90
15937;DHT22;9163;48.818;8.976;2024-01-30T15:56:00;10.50;99.90
15937;DHT22;9163;48.818;8.976;2024-01-30T15:58:27;10.30;99.90
15937;DHT22;9163;48.818;8.976;2024-01-30T16:00:55;10.30;99.90
15937;DHT22;9163;48.818;8.976;2024-01-30T16:03:23;10.20;99.90
15937;DHT22;9163;48.818;8.976;2024-01-30T16:05:51;10.10;99.90
15937;DHT22;9163;48.818;8.976;2024-01-30T16:08:18;10.00;99.90
15937;DHT22;9163;48.818;8.976;2024-01-30T16:10:45;9.90;99.90
15937;DHT22;9163;48.818;8.976;2024-01-30T16:13:13;9.80;99.90